Cosco Nagoya — 3ESJ8 — position and weather

sailwx.info

Track history (hours):
 
Tides and Currents Weather Stations Pressure Air Temp Water Temp Dewpoint Dewpoint Depression Visibility Wind Speed Wind Dir Waves Ship Positions

Cosco Nagoya

Last reported at 2015-Jan-26 05:33 UTC. Time now 2015-Jan-26 06:27 UTC.
Position N 51°20' E 004°17'.

Length 260 m; draft 11.6 m.

Type: Cargo ship. MMSI: 370320000.

Date/timePositionNaut miles runAvg speedWind from/ knotsBaromVisibWave heightAir tempDewpointWater temp
2015-Jan-26 05:33N 51°20' E 004°17'0 0.0
2015-Jan-26 04:33N 51°20' E 004°17'0 0.2
2015-Jan-26 03:34N 51°20' E 004°16'1110.9
2015-Jan-26 02:34N 51°26' E 004°01'1211.6
2015-Jan-26 01:34N 51°25' E 003°42'1212.3
2015-Jan-26 00:33N 51°24' E 003°23'1616.4
2015-Jan-25 23:33N 51°23' E 002°57'1413.8
2015-Jan-25 22:33N 51°22' E 002°35'1211.9
2015-Jan-25 21:34N 51°18' E 002°17'1918.9
2015-Jan-25 20:34N 51°08' E 001°50'1919.3
2015-Jan-25 19:33N 50°54' E 001°29'2019.6
2015-Jan-25 18:31N 50°37' E 001°13'1919.2
2015-Jan-25 17:33N 50°26' E 000°49'1919.2
2015-Jan-25 16:32N 50°21' E 000°19'  
Track history (hours):
 
Tides and Currents Weather Stations Pressure Air Temp Water Temp Dewpoint Dewpoint Depression Visibility Wind Speed Wind Dir Waves Ship Positions

Cosco Nagoya

Last reported at 2015-Jan-26 05:33 UTC. Time now 2015-Jan-26 06:27 UTC.
Position N 51°20' E 004°17'.

Length 260 m; draft 11.6 m.

Type: Cargo ship. MMSI: 370320000.

Date/timePositionNaut miles runAvg speedWind from/ knotsBaromVisibWave heightAir tempDewpointWater temp
2015-Jan-26 05:33N 51°20' E 004°17'0 0.0
2015-Jan-26 04:33N 51°20' E 004°17'0 0.2
2015-Jan-26 03:34N 51°20' E 004°16'1110.9
2015-Jan-26 02:34N 51°26' E 004°01'1211.6
2015-Jan-26 01:34N 51°25' E 003°42'1212.3
2015-Jan-26 00:33N 51°24' E 003°23'1616.4
2015-Jan-25 23:33N 51°23' E 002°57'1413.8
2015-Jan-25 22:33N 51°22' E 002°35'1211.9
2015-Jan-25 21:34N 51°18' E 002°17'1918.9
2015-Jan-25 20:34N 51°08' E 001°50'1919.3
2015-Jan-25 19:33N 50°54' E 001°29'2019.6
2015-Jan-25 18:31N 50°37' E 001°13'1919.2
2015-Jan-25 17:33N 50°26' E 000°49'1919.2
2015-Jan-25 16:32N 50°21' E 000°19'  

Dump ship's entire track history